createdAt,value
2023-05-08T00:01:24.007Z,36.10
2023-05-08T00:03:52.372Z,22.13
2023-05-08T00:06:19.688Z,24.05
2023-05-08T00:08:46.716Z,25.13
2023-05-08T00:11:14.386Z,20.50
2023-05-08T00:13:41.514Z,37.97
2023-05-08T00:16:12.686Z,20.65
2023-05-08T00:18:40.053Z,18.48
2023-05-08T00:21:07.446Z,19.45
2023-05-08T00:23:34.583Z,20.00
2023-05-08T00:26:01.657Z,19.65
2023-05-08T00:28:28.745Z,19.83
2023-05-08T00:30:55.903Z,17.55
2023-05-08T00:33:22.915Z,18.45
2023-05-08T00:35:49.974Z,21.20
2023-05-08T00:38:17.082Z,17.98
2023-05-08T00:40:44.166Z,22.77
2023-05-08T00:43:11.281Z,21.25
2023-05-08T00:45:39.678Z,21.13
2023-05-08T00:48:07.782Z,21.70
2023-05-08T00:50:36.149Z,25.55
2023-05-08T00:53:04.506Z,20.48
2023-05-08T00:55:32.937Z,20.70
2023-05-08T00:58:00.336Z,27.65
2023-05-08T01:00:27.747Z,25.52
2023-05-08T01:02:55.013Z,19.17
2023-05-08T01:05:22.071Z,24.10
2023-05-08T01:07:49.207Z,28.05
2023-05-08T01:10:16.441Z,25.55
2023-05-08T01:13:09.702Z,25.30
2023-05-08T01:15:58.963Z,22.05
2023-05-08T01:18:38.616Z,19.35
2023-05-08T01:21:41.390Z,20.58
2023-05-08T01:24:29.855Z,21.85
2023-05-08T01:27:32.671Z,18.95
2023-05-08T01:30:18.555Z,20.60
2023-05-08T01:32:58.225Z,28.00
2023-05-08T01:35:47.307Z,19.65
2023-05-08T01:38:33.824Z,33.92
2023-05-08T01:41:10.718Z,24.75
2023-05-08T01:44:18.108Z,24.10
2023-05-08T01:46:49.591Z,30.08
2023-05-08T01:49:28.099Z,28.65
2023-05-08T01:52:05.876Z,32.63
2023-05-08T01:54:39.313Z,20.70
2023-05-08T01:57:09.067Z,23.77
2023-05-08T01:59:38.062Z,17.83
2023-05-08T02:02:06.524Z,20.90
2023-05-08T02:04:35.705Z,22.52
2023-05-08T02:07:03.659Z,25.20
2023-05-08T02:09:32.233Z,17.80
2023-05-08T02:12:01.150Z,16.90
2023-05-08T02:14:30.965Z,17.88
2023-05-08T02:17:01.936Z,16.63
2023-05-08T02:19:30.244Z,13.57
2023-05-08T02:21:59.953Z,16.88
2023-05-08T02:24:27.167Z,12.52
2023-05-08T02:26:56.856Z,12.60
2023-05-08T02:29:24.661Z,12.18
2023-05-08T02:31:54.328Z,14.07
2023-05-08T02:34:23.351Z,12.57
2023-05-08T02:36:52.876Z,14.60
2023-05-08T02:39:25.303Z,13.27
2023-05-08T02:41:52.435Z,20.92
2023-05-08T02:44:19.644Z,14.73
2023-05-08T02:46:56.457Z,12.07
2023-05-08T02:49:29.243Z,11.25
2023-05-08T02:52:28.329Z,12.23
2023-05-08T02:55:01.269Z,12.23
2023-05-08T02:57:48.067Z,14.98
2023-05-08T03:00:27.460Z,12.90
2023-05-08T03:02:59.566Z,11.88
2023-05-08T03:05:31.747Z,12.25
2023-05-08T03:08:06.529Z,13.45
2023-05-08T03:10:35.476Z,13.23
2023-05-08T03:13:09.154Z,12.52
2023-05-08T03:18:13.810Z,13.07
2023-05-08T03:20:45.053Z,14.20
2023-05-08T03:23:15.365Z,13.00
2023-05-08T03:25:43.863Z,14.57
2023-05-08T03:28:12.316Z,13.68
2023-05-08T03:30:42.085Z,23.05
2023-05-08T03:33:11.650Z,14.70
2023-05-08T03:35:39.925Z,12.93
2023-05-08T03:38:08.303Z,16.90
2023-05-08T03:40:38.856Z,13.18
2023-05-08T03:43:07.979Z,26.77
2023-05-08T03:45:37.043Z,17.05
2023-05-08T03:48:06.730Z,19.02
2023-05-08T03:50:38.488Z,30.92
2023-05-08T03:53:05.890Z,48.30
2023-05-08T03:55:33.164Z,16.38
2023-05-08T03:58:06.298Z,22.45
2023-05-08T04:01:02.508Z,19.55
2023-05-08T04:03:54.448Z,14.93
2023-05-08T04:06:30.702Z,36.22
2023-05-08T04:09:18.225Z,16.77
2023-05-08T04:11:50.837Z,22.02
2023-05-08T04:14:20.524Z,34.78
2023-05-08T04:16:53.583Z,15.25
2023-05-08T04:19:25.907Z,22.10
2023-05-08T04:21:57.255Z,12.13
2023-05-08T04:24:25.744Z,15.75
2023-05-08T04:26:53.678Z,14.27
2023-05-08T04:29:21.172Z,20.20
2023-05-08T04:31:50.841Z,20.65
2023-05-08T04:34:18.623Z,13.10
2023-05-08T04:36:46.073Z,15.77
2023-05-08T04:39:13.221Z,14.02
2023-05-08T04:41:40.362Z,13.85
2023-05-08T04:44:07.729Z,15.82
2023-05-08T04:46:34.931Z,14.63
2023-05-08T04:49:02.124Z,20.65
2023-05-08T04:51:29.482Z,15.63
2023-05-08T04:53:56.737Z,14.85
2023-05-08T04:56:23.749Z,14.35
2023-05-08T04:58:51.278Z,16.17
2023-05-08T05:01:18.363Z,15.48
2023-05-08T05:03:45.911Z,15.27
2023-05-08T05:06:12.991Z,16.40
2023-05-08T05:08:40.148Z,20.15
2023-05-08T05:11:07.279Z,16.00
2023-05-08T05:13:34.537Z,17.52
2023-05-08T05:16:02.003Z,20.15
2023-05-08T05:18:29.189Z,18.15
2023-05-08T05:20:58.649Z,18.58
2023-05-08T05:23:25.801Z,16.52
2023-05-08T05:25:53.355Z,18.08
2023-05-08T05:28:20.393Z,17.27
2023-05-08T05:30:48.408Z,18.65
2023-05-08T05:33:15.918Z,19.48
2023-05-08T05:35:43.397Z,19.27
2023-05-08T05:38:10.871Z,19.33
2023-05-08T05:40:38.020Z,19.38
2023-05-08T05:43:05.905Z,23.60
2023-05-08T05:45:33.573Z,24.05
2023-05-08T05:48:02.163Z,25.10
2023-05-08T05:50:29.320Z,24.45
2023-05-08T05:52:56.408Z,24.40
2023-05-08T05:55:23.886Z,24.38
2023-05-08T05:57:51.104Z,22.90
2023-05-08T06:00:18.627Z,24.67
2023-05-08T06:02:46.310Z,25.92
2023-05-08T06:05:13.796Z,23.90
2023-05-08T06:07:41.082Z,24.25
2023-05-08T06:10:08.491Z,22.58
2023-05-08T06:12:35.910Z,23.33
2023-05-08T06:15:03.239Z,26.35
2023-05-08T06:17:30.317Z,21.13
2023-05-08T06:19:57.501Z,26.45
2023-05-08T06:22:25.551Z,27.15
2023-05-08T06:24:55.700Z,26.25
2023-05-08T06:27:23.178Z,22.83
2023-05-08T06:29:53.068Z,24.55
2023-05-08T06:32:21.329Z,24.98
2023-05-08T06:34:48.684Z,25.77
2023-05-08T06:37:15.998Z,22.52
2023-05-08T06:39:43.318Z,23.77
2023-05-08T06:42:10.398Z,18.70
2023-05-08T06:44:38.645Z,20.83
2023-05-08T06:47:06.076Z,22.65
2023-05-08T06:49:33.109Z,24.65
2023-05-08T06:52:00.639Z,19.75
2023-05-08T06:54:27.813Z,21.05
2023-05-08T06:56:54.947Z,22.05
2023-05-08T06:59:23.325Z,23.02
2023-05-08T07:01:50.885Z,31.45
2023-05-08T07:04:18.101Z,26.83
2023-05-08T07:06:45.228Z,20.50
2023-05-08T07:09:12.981Z,29.75
2023-05-08T07:11:40.060Z,24.80
2023-05-08T07:14:07.190Z,25.52
2023-05-08T07:16:34.794Z,20.63
2023-05-08T07:19:02.057Z,27.05
2023-05-08T07:21:29.658Z,24.20
2023-05-08T07:23:56.912Z,25.50
2023-05-08T07:26:23.952Z,28.80
2023-05-08T07:28:51.272Z,24.50
2023-05-08T07:31:18.344Z,25.70
2023-05-08T07:33:47.069Z,22.35
2023-05-08T07:36:14.115Z,28.80
2023-05-08T07:38:41.246Z,24.52
2023-05-08T07:41:08.551Z,27.55
2023-05-08T07:43:35.982Z,26.45
2023-05-08T07:46:03.435Z,24.75
2023-05-08T07:48:30.503Z,27.10
2023-05-08T07:50:57.584Z,24.48
2023-05-08T07:53:24.811Z,26.10
2023-05-08T07:55:51.999Z,25.23
2023-05-08T07:58:19.355Z,27.77
2023-05-08T08:00:47.107Z,28.08
2023-05-08T08:03:14.319Z,33.45
2023-05-08T08:05:42.040Z,29.27
2023-05-08T08:08:09.078Z,27.13
2023-05-08T08:10:36.364Z,29.13
2023-05-08T08:13:03.385Z,31.75
2023-05-08T08:15:30.639Z,26.00
2023-05-08T08:17:57.643Z,25.45
2023-05-08T08:20:24.726Z,33.70
2023-05-08T08:22:51.857Z,27.70
2023-05-08T08:25:19.020Z,25.15
2023-05-08T08:27:46.273Z,26.95
2023-05-08T08:30:18.079Z,28.50
2023-05-08T08:32:46.996Z,24.35
2023-05-08T08:35:14.755Z,24.90
2023-05-08T08:37:43.155Z,24.55
2023-05-08T08:40:10.574Z,28.20
2023-05-08T08:42:37.780Z,28.15
2023-05-08T08:45:07.050Z,32.50
2023-05-08T08:47:37.798Z,26.60
2023-05-08T08:50:06.315Z,27.23
2023-05-08T08:53:00.666Z,25.98
2023-05-08T08:55:29.344Z,28.95
2023-05-08T08:58:11.327Z,23.50
2023-05-08T09:00:39.441Z,27.65
2023-05-08T09:03:07.954Z,24.02
2023-05-08T09:05:35.910Z,30.75
2023-05-08T09:08:03.244Z,24.45
2023-05-08T09:10:30.326Z,22.60
2023-05-08T09:12:57.589Z,25.02
2023-05-08T09:15:24.853Z,23.80
2023-05-08T09:17:51.968Z,24.15
2023-05-08T09:20:19.510Z,25.95
2023-05-08T09:22:47.132Z,22.65
2023-05-08T09:25:14.471Z,23.83
2023-05-08T09:27:41.840Z,26.63
2023-05-08T09:30:11.129Z,25.08
2023-05-08T09:32:40.030Z,25.55
2023-05-08T09:35:08.618Z,23.67
2023-05-08T09:37:40.353Z,27.65
2023-05-08T09:40:28.336Z,25.08
2023-05-08T09:42:55.476Z,24.58
2023-05-08T09:45:31.244Z,27.13
2023-05-08T09:47:58.864Z,25.98
2023-05-08T09:50:26.080Z,25.52
2023-05-08T09:52:53.585Z,21.92
2023-05-08T09:55:20.804Z,22.85
2023-05-08T09:57:59.756Z,21.45
2023-05-08T10:00:28.892Z,25.98
2023-05-08T10:03:03.663Z,22.15
2023-05-08T10:05:33.118Z,20.20
2023-05-08T10:08:17.884Z,21.80
2023-05-08T10:10:44.992Z,19.52
2023-05-08T10:13:12.089Z,22.67
2023-05-08T10:15:42.802Z,24.67
2023-05-08T10:18:12.180Z,20.55
2023-05-08T10:20:41.630Z,23.23
2023-05-08T10:23:11.551Z,24.58
2023-05-08T10:25:45.318Z,23.50
2023-05-08T10:28:39.869Z,24.25
2023-05-08T10:31:08.200Z,23.60
2023-05-08T10:33:40.508Z,22.23
2023-05-08T10:36:10.003Z,25.45
2023-05-08T10:38:41.495Z,27.38
2023-05-08T10:41:11.030Z,26.27
2023-05-08T10:43:42.215Z,32.38
2023-05-08T10:46:22.958Z,26.88
2023-05-08T10:49:23.996Z,28.50
2023-05-08T10:51:55.868Z,27.25
2023-05-08T10:54:38.592Z,33.47
2023-05-08T10:57:10.656Z,31.33
2023-05-08T10:59:38.426Z,36.05
2023-05-08T11:02:07.921Z,40.40
2023-05-08T11:04:35.823Z,37.05
2023-05-08T11:07:04.516Z,38.17
2023-05-08T11:09:43.578Z,38.22
2023-05-08T11:12:22.880Z,36.28
2023-05-08T11:15:06.241Z,39.72
2023-05-08T11:17:34.587Z,47.05
2023-05-08T11:20:07.060Z,37.75
2023-05-08T11:22:35.755Z,41.13
2023-05-08T11:25:10.436Z,41.67
2023-05-08T11:27:38.825Z,39.83
2023-05-08T11:30:41.338Z,39.53
2023-05-08T11:33:08.398Z,42.38
2023-05-08T11:35:54.040Z,50.28
2023-05-08T11:38:36.260Z,45.03
2023-05-08T11:41:10.255Z,50.35
2023-05-08T11:43:44.309Z,46.65
2023-05-08T11:46:17.582Z,53.50
2023-05-08T11:48:45.207Z,57.40
2023-05-08T11:51:13.694Z,47.00
2023-05-08T11:53:41.018Z,50.65
2023-05-08T11:56:08.747Z,55.95
2023-05-08T11:58:36.873Z,50.95
2023-05-08T12:01:04.590Z,48.95
2023-05-08T12:03:32.188Z,46.50
2023-05-08T12:06:00.580Z,48.35
2023-05-08T12:08:27.723Z,51.88
2023-05-08T12:10:59.898Z,48.47
2023-05-08T12:13:30.221Z,49.75
2023-05-08T12:16:00.010Z,46.20
2023-05-08T12:18:29.270Z,44.83
2023-05-08T12:20:58.573Z,45.65
2023-05-08T12:23:27.213Z,50.92
2023-05-08T12:25:55.564Z,48.88
2023-05-08T12:28:22.898Z,53.55
2023-05-08T12:30:50.472Z,49.85
2023-05-08T12:33:19.277Z,54.97
2023-05-08T12:35:46.488Z,50.35
2023-05-08T12:38:13.772Z,49.88
2023-05-08T12:40:43.891Z,49.10
2023-05-08T12:43:11.433Z,49.70
2023-05-08T12:45:40.491Z,44.03
2023-05-08T12:48:15.886Z,46.53
2023-05-08T12:50:45.094Z,46.33
2023-05-08T12:53:14.040Z,43.63
2023-05-08T12:55:52.739Z,43.53
2023-05-08T12:58:24.035Z,42.08
2023-05-08T13:00:52.857Z,43.88
2023-05-08T13:03:25.718Z,40.20
2023-05-08T13:05:55.120Z,37.50
2023-05-08T13:08:37.074Z,39.55
2023-05-08T13:11:06.720Z,42.38
2023-05-08T13:13:35.895Z,34.92
2023-05-08T13:16:07.555Z,32.83
2023-05-08T13:18:36.984Z,31.73
2023-05-08T13:21:04.559Z,36.35
2023-05-08T13:23:31.660Z,38.35
2023-05-08T13:25:58.695Z,31.30
2023-05-08T13:28:25.763Z,28.95
2023-05-08T13:30:52.844Z,27.27
2023-05-08T13:33:19.981Z,28.38
2023-05-08T13:35:47.516Z,29.23
2023-05-08T13:38:14.635Z,31.05
2023-05-08T13:40:41.770Z,29.70
2023-05-08T13:43:08.922Z,31.85
2023-05-08T13:45:36.119Z,26.77
2023-05-08T13:48:03.355Z,28.60
2023-05-08T13:50:30.566Z,34.95
2023-05-08T13:52:57.621Z,33.58
2023-05-08T13:55:24.759Z,28.67
2023-05-08T13:57:52.115Z,29.55
2023-05-08T14:00:19.638Z,29.02
2023-05-08T14:02:48.812Z,31.20
2023-05-08T14:05:17.447Z,33.10
2023-05-08T14:07:45.410Z,32.10
2023-05-08T14:10:12.555Z,44.63
2023-05-08T14:12:40.387Z,29.75
2023-05-08T14:15:08.210Z,26.50
2023-05-08T14:17:36.220Z,28.73
2023-05-08T14:20:04.720Z,32.15
2023-05-08T14:22:31.850Z,46.92
2023-05-08T14:24:58.944Z,29.00
2023-05-08T14:27:26.101Z,30.83
2023-05-08T14:29:54.065Z,34.97
2023-05-08T14:32:21.309Z,33.50
2023-05-08T14:34:48.344Z,32.70
2023-05-08T14:37:19.334Z,30.52
2023-05-08T14:39:46.396Z,32.60
2023-05-08T14:42:22.789Z,30.88
2023-05-08T14:44:51.599Z,33.10
2023-05-08T14:47:18.916Z,34.70
2023-05-08T14:49:46.075Z,39.50
2023-05-08T14:52:13.331Z,34.97
2023-05-08T14:54:40.605Z,35.08
2023-05-08T14:57:07.771Z,33.95
2023-05-08T14:59:34.782Z,34.58
2023-05-08T15:02:02.018Z,40.65
2023-05-08T15:04:29.100Z,37.88
2023-05-08T15:06:56.190Z,32.05
2023-05-08T15:09:23.395Z,32.92
2023-05-08T15:11:50.557Z,27.45
2023-05-08T15:14:18.000Z,28.52
2023-05-08T15:16:45.057Z,24.27
2023-05-08T15:19:12.282Z,31.88
2023-05-08T15:21:39.303Z,30.08
2023-05-08T15:24:07.039Z,30.02
2023-05-08T15:26:34.391Z,29.95
2023-05-08T15:29:02.001Z,28.25
2023-05-08T15:31:29.110Z,26.88
2023-05-08T15:33:56.212Z,32.55
2023-05-08T15:36:23.328Z,30.38
2023-05-08T15:38:50.686Z,27.20
2023-05-08T15:41:17.825Z,33.05
2023-05-08T15:43:45.970Z,29.50
2023-05-08T15:46:13.120Z,33.65
2023-05-08T15:48:40.244Z,28.85
2023-05-08T15:51:07.389Z,27.45
2023-05-08T15:53:35.976Z,29.08
2023-05-08T15:56:06.106Z,27.83
2023-05-08T15:58:33.209Z,29.05
2023-05-08T16:01:00.803Z,26.83
2023-05-08T16:03:28.185Z,31.20
2023-05-08T16:05:55.473Z,30.67
2023-05-08T16:08:22.744Z,27.70
2023-05-08T16:10:49.863Z,29.23
2023-05-08T16:13:17.524Z,29.65
2023-05-08T16:15:44.691Z,23.50
2023-05-08T16:18:11.897Z,31.80
2023-05-08T16:20:41.706Z,29.13
2023-05-08T16:23:08.900Z,28.50
2023-05-08T16:25:36.342Z,29.73
2023-05-08T16:28:03.947Z,33.50
2023-05-08T16:30:31.058Z,33.47
2023-05-08T16:32:58.203Z,31.83
2023-05-08T16:35:25.372Z,26.33
2023-05-08T16:37:54.782Z,27.83
2023-05-08T16:40:21.883Z,31.73
2023-05-08T16:42:48.914Z,28.75
2023-05-08T16:45:16.266Z,32.63
2023-05-08T16:47:43.376Z,35.55
2023-05-08T16:50:11.032Z,38.60
2023-05-08T16:52:38.482Z,42.30
2023-05-08T16:55:06.242Z,45.05
2023-05-08T16:57:34.025Z,47.70
2023-05-08T17:00:01.777Z,49.17
2023-05-08T17:02:28.910Z,69.82
2023-05-08T17:04:56.014Z,61.20
2023-05-08T17:07:23.570Z,77.35
2023-05-08T17:09:56.039Z,74.90
2023-05-08T17:12:23.910Z,70.72
2023-05-08T17:14:51.064Z,83.05
2023-05-08T17:17:18.133Z,69.70
2023-05-08T17:19:45.419Z,87.50
2023-05-08T17:22:13.149Z,81.05
2023-05-08T17:24:40.328Z,84.25
2023-05-08T17:27:07.851Z,83.72
2023-05-08T17:29:35.903Z,81.25
2023-05-08T17:32:03.070Z,85.30
2023-05-08T17:34:30.265Z,82.55
2023-05-08T17:36:57.433Z,86.65
2023-05-08T17:39:24.583Z,93.10
2023-05-08T17:41:51.950Z,88.72
2023-05-08T17:44:19.127Z,100.68
2023-05-08T17:46:46.477Z,97.00
2023-05-08T17:49:14.779Z,81.32
2023-05-08T17:51:43.438Z,88.07
2023-05-08T17:54:10.587Z,87.78
2023-05-08T17:56:37.651Z,95.88
2023-05-08T17:59:05.053Z,79.05
2023-05-08T18:01:32.267Z,81.75
2023-05-08T18:03:59.427Z,77.20
2023-05-08T18:06:26.549Z,98.05
2023-05-08T18:08:53.684Z,87.63
2023-05-08T18:11:23.234Z,86.95
2023-05-08T18:13:52.901Z,85.90
2023-05-08T18:16:22.509Z,81.65
2023-05-08T18:18:50.080Z,86.13
2023-05-08T18:21:20.060Z,89.65
2023-05-08T18:23:47.768Z,69.47
2023-05-08T18:26:16.192Z,69.75
2023-05-08T18:28:44.148Z,61.15
2023-05-08T18:31:11.902Z,60.95
2023-05-08T18:33:39.290Z,65.03
2023-05-08T18:36:07.339Z,61.20
2023-05-08T18:38:35.606Z,55.97
2023-05-08T18:41:03.945Z,63.20
2023-05-08T18:43:31.051Z,63.22
2023-05-08T18:46:00.839Z,63.70
2023-05-08T18:48:29.296Z,61.53
2023-05-08T18:50:58.502Z,69.95
2023-05-08T18:53:25.882Z,65.25
2023-05-08T18:55:53.092Z,60.50
2023-05-08T18:58:20.539Z,76.53
2023-05-08T19:00:47.738Z,65.05
2023-05-08T19:03:15.019Z,64.82
2023-05-08T19:05:42.129Z,59.25
2023-05-08T19:08:09.295Z,56.90
2023-05-08T19:10:36.341Z,68.70
2023-05-08T19:13:04.132Z,57.38
2023-05-08T19:15:31.331Z,61.47
2023-05-08T19:17:58.429Z,61.25
2023-05-08T19:20:25.667Z,53.83
2023-05-08T19:22:52.857Z,56.75
2023-05-08T19:25:20.149Z,52.90
2023-05-08T19:27:49.910Z,62.53
2023-05-08T19:30:17.245Z,52.15
2023-05-08T19:32:44.359Z,62.20
2023-05-08T19:35:11.456Z,58.78
2023-05-08T19:37:38.517Z,58.00
2023-05-08T19:40:06.461Z,54.30
2023-05-08T19:42:35.170Z,48.80
2023-05-08T19:45:02.276Z,59.97
2023-05-08T19:47:29.381Z,56.60
2023-05-08T19:49:56.455Z,61.47
2023-05-08T19:52:23.596Z,67.90
2023-05-08T19:54:51.024Z,63.83
2023-05-08T19:57:18.130Z,55.15
2023-05-08T19:59:45.156Z,57.38
2023-05-08T20:02:12.212Z,62.53
2023-05-08T20:04:57.501Z,63.70
2023-05-08T20:07:26.381Z,59.92
2023-05-08T20:09:53.579Z,60.50
2023-05-08T20:12:20.677Z,62.78
2023-05-08T20:14:47.792Z,61.03
2023-05-08T20:17:14.898Z,62.40
2023-05-08T20:19:42.025Z,55.95
2023-05-08T20:22:09.193Z,63.10
2023-05-08T20:24:36.359Z,56.40
2023-05-08T20:27:03.395Z,75.25
2023-05-08T20:29:30.612Z,58.70
2023-05-08T20:31:57.664Z,67.15
2023-05-08T20:34:24.790Z,63.63
2023-05-08T20:36:51.904Z,61.65
2023-05-08T20:39:19.008Z,73.80
2023-05-08T20:41:46.161Z,73.03
2023-05-08T20:44:17.054Z,74.47
2023-05-08T20:46:44.154Z,84.57
2023-05-08T20:49:11.182Z,84.38
2023-05-08T20:51:38.441Z,78.68
2023-05-08T20:54:05.601Z,67.63
2023-05-08T20:56:32.750Z,62.85
2023-05-08T20:58:59.820Z,71.63
2023-05-08T21:01:26.935Z,77.65
2023-05-08T21:03:54.022Z,65.47
2023-05-08T21:06:21.150Z,73.93
2023-05-08T21:08:48.240Z,68.03
2023-05-08T21:11:16.363Z,56.17
2023-05-08T21:13:46.170Z,49.25
2023-05-08T21:16:13.249Z,54.95
2023-05-08T21:18:40.568Z,47.65
2023-05-08T21:21:25.540Z,46.33
2023-05-08T21:23:52.917Z,45.30
2023-05-08T21:26:23.311Z,46.08
2023-05-08T21:28:52.425Z,57.05
2023-05-08T21:31:19.960Z,40.72
2023-05-08T21:33:47.587Z,39.65
2023-05-08T21:36:14.723Z,47.15
2023-05-08T21:38:41.843Z,43.90
2023-05-08T21:41:09.000Z,38.58
2023-05-08T21:43:36.937Z,41.90
2023-05-08T21:46:05.483Z,41.22
2023-05-08T21:48:33.581Z,43.10
2023-05-08T21:51:00.984Z,40.22
2023-05-08T21:53:28.220Z,46.08
2023-05-08T21:55:55.361Z,45.25
2023-05-08T21:58:22.441Z,44.30
2023-05-08T22:00:49.459Z,41.63
2023-05-08T22:03:16.659Z,49.08
2023-05-08T22:05:43.852Z,41.83
2023-05-08T22:08:11.102Z,48.15
2023-05-08T22:10:38.265Z,46.45
2023-05-08T22:13:06.437Z,40.10
2023-05-08T22:15:34.289Z,41.90
2023-05-08T22:18:02.871Z,39.88
2023-05-08T22:20:30.128Z,53.97
2023-05-08T22:22:57.280Z,45.90
2023-05-08T22:25:25.559Z,47.50
2023-05-08T22:27:52.862Z,42.10
2023-05-08T22:30:19.976Z,43.88
2023-05-08T22:32:55.314Z,44.55
2023-05-08T22:35:24.370Z,39.90
2023-05-08T22:37:52.548Z,47.22
2023-05-08T22:40:21.020Z,43.95
2023-05-08T22:42:48.549Z,40.70
2023-05-08T22:45:16.634Z,42.78
2023-05-08T22:47:44.150Z,48.53
2023-05-08T22:50:11.782Z,48.97
2023-05-08T22:52:39.456Z,48.97
2023-05-08T22:55:07.779Z,44.67
2023-05-08T22:57:35.453Z,42.22
2023-05-08T23:00:02.765Z,48.70
2023-05-08T23:02:34.416Z,51.95
2023-05-08T23:05:02.304Z,46.65
2023-05-08T23:07:29.683Z,48.60
2023-05-08T23:09:56.736Z,47.08
2023-05-08T23:12:23.822Z,52.03
2023-05-08T23:14:51.824Z,43.35
2023-05-08T23:17:18.897Z,46.58
2023-05-08T23:19:46.279Z,46.95
2023-05-08T23:22:13.519Z,53.30
2023-05-08T23:24:40.621Z,50.17
2023-05-08T23:27:07.759Z,51.25
2023-05-08T23:29:35.432Z,56.83
2023-05-08T23:32:02.741Z,48.05
2023-05-08T23:34:29.822Z,63.53
2023-05-08T23:36:57.051Z,52.88
2023-05-08T23:39:24.122Z,54.30
2023-05-08T23:41:51.139Z,55.58
2023-05-08T23:44:18.198Z,52.35
2023-05-08T23:46:46.331Z,49.95
2023-05-08T23:49:13.588Z,55.25
2023-05-08T23:51:40.703Z,58.88
2023-05-08T23:54:08.173Z,59.42
2023-05-08T23:56:35.794Z,63.50
2023-05-08T23:59:02.962Z,50.97
